Time;durP1;ratioP1;P1;durP2;ratioP2;P2;SDS_P1;SDS_P2;PMS_P1;PMS_P2;Temp;Humidity;BMP_temperature;BMP_pressure;BME280_temperature;BME280_humidity;BME280_pressure;Samples;Min_cycle;Max_cycle;Signal;HPM_P1;HPM_P2
2023/10/31 00:01:25;;;;;;;1999.90;999.90;;;;;;;10.54;100.00;93074.50;5008179;28;20172;-57
2023/10/31 00:03:50;;;;;;;1999.90;999.90;;;;;;;10.51;100.00;93074.66;5008472;28;20198;-57
2023/10/31 00:06:15;;;;;;;1999.90;999.90;;;;;;;10.51;100.00;93078.16;5008001;28;20243;-57
2023/10/31 00:08:41;;;;;;;1999.90;999.90;;;;;;;10.46;100.00;93078.00;5008150;28;20419;-55
2023/10/31 00:11:06;;;;;;;1999.90;999.90;;;;;;;10.32;100.00;93068.50;5008114;28;20172;-55
2023/10/31 00:13:31;;;;;;;1999.90;999.90;;;;;;;10.26;100.00;93077.75;5007578;28;20250;-54
2023/10/31 00:15:57;;;;;;;1999.90;999.90;;;;;;;10.17;100.00;93083.22;5007807;28;20168;-52
2023/10/31 00:18:22;;;;;;;1999.90;999.90;;;;;;;10.08;100.00;93083.97;5007826;28;20190;-52
2023/10/31 00:20:47;;;;;;;1999.90;999.90;;;;;;;10.04;100.00;93092.28;5007786;28;20236;-53
2023/10/31 00:23:15;;;;;;;1999.90;999.90;;;;;;;9.98;100.00;93088.66;5007668;28;20196;-54
2023/10/31 00:25:40;;;;;;;1999.90;999.90;;;;;;;9.88;100.00;93087.13;5007757;28;20164;-57
2023/10/31 00:28:05;;;;;;;1999.90;999.90;;;;;;;9.86;100.00;93102.44;5008143;28;20165;-55
2023/10/31 00:30:31;;;;;;;1999.90;999.90;;;;;;;9.85;100.00;93109.88;5008255;28;20172;-54
2023/10/31 00:32:56;;;;;;;1999.90;999.90;;;;;;;9.89;100.00;93109.72;5008110;28;20164;-55
2023/10/31 00:35:21;;;;;;;1999.90;999.90;;;;;;;9.86;100.00;93102.44;5008080;28;20165;-51
2023/10/31 00:37:47;;;;;;;1999.90;999.90;;;;;;;9.79;100.00;93100.78;5008014;28;20247;-58
2023/10/31 00:40:12;;;;;;;1999.90;999.90;;;;;;;9.81;100.00;93095.63;5007469;28;20261;-56
2023/10/31 00:42:40;;;;;;;1999.90;999.90;;;;;;;9.77;100.00;93100.47;5007988;28;20215;-54
2023/10/31 00:45:06;;;;;;;1999.90;999.90;;;;;;;9.73;100.00;93102.59;5007214;28;20169;-57
2023/10/31 00:47:31;;;;;;;1999.90;999.90;;;;;;;9.78;100.00;93102.00;5008282;28;20175;-57
2023/10/31 00:49:57;;;;;;;1999.90;999.90;;;;;;;9.74;100.00;93101.41;5007199;28;20167;-56
2023/10/31 00:52:22;;;;;;;1999.90;999.90;;;;;;;9.75;100.00;93100.19;5007943;28;20163;-56
2023/10/31 00:54:48;;;;;;;1999.90;999.90;;;;;;;9.72;100.00;93092.91;5008162;28;20164;-55
2023/10/31 00:57:13;;;;;;;1999.90;999.90;;;;;;;9.74;100.00;93109.56;5007327;28;20242;-54
2023/10/31 00:59:39;;;;;;;1999.90;999.90;;;;;;;9.70;100.00;93117.13;5007920;28;20177;-53
2023/10/31 01:02:04;;;;;;;1999.90;999.90;;;;;;;9.67;100.00;93118.03;5007891;28;20187;-55
2023/10/31 01:04:31;;;;;;;1999.90;999.90;;;;;;;9.70;100.00;93111.66;5007756;28;20274;-56
2023/10/31 01:06:56;;;;;;;1999.90;999.90;;;;;;;9.67;100.00;93101.69;5007711;28;20324;-55
2023/10/31 01:09:22;;;;;;;1999.90;999.90;;;;;;;9.66;100.00;93111.06;5007811;28;20172;-55
2023/10/31 01:11:47;;;;;;;1999.90;999.90;;;;;;;9.67;100.00;93109.88;5008022;28;20192;-59
2023/10/31 01:14:13;;;;;;;1999.90;999.90;;;;;;;9.66;100.00;93121.94;5007408;28;20241;-56
2023/10/31 01:16:40;;;;;;;1999.90;999.90;;;;;;;9.67;100.00;93112.59;5007268;28;20173;-54
2023/10/31 01:19:05;;;;;;;1999.90;999.90;;;;;;;9.65;100.00;93114.22;5007158;28;20263;-54
2023/10/31 01:21:31;;;;;;;1999.90;999.90;;;;;;;9.67;100.00;93120.75;5006832;28;20172;-55
2023/10/31 01:23:56;;;;;;;1999.90;999.90;;;;;;;9.69;100.00;93131.97;5008033;28;20199;-55
2023/10/31 01:26:21;;;;;;;1999.90;999.90;;;;;;;9.70;100.00;93130.72;5010863;28;20168;-57
2023/10/31 01:28:47;;;;;;;1999.90;999.90;;;;;;;9.69;100.00;93121.06;5010780;28;20165;-57
2023/10/31 01:31:12;;;;;;;1999.90;999.90;;;;;;;9.71;100.00;93129.56;5010675;28;20196;-54
2023/10/31 01:33:37;;;;;;;1999.90;999.90;;;;;;;9.72;100.00;93120.16;5010718;28;20159;-54
2023/10/31 01:36:03;;;;;;;1999.90;999.90;;;;;;;9.70;100.00;93138.91;5010710;28;20165;-56
2023/10/31 01:38:28;;;;;;;1999.90;999.90;;;;;;;9.71;100.00;93129.56;5010257;28;20193;-57
2023/10/31 01:40:54;;;;;;;1999.90;999.90;;;;;;;9.74;100.00;93134.09;5010479;28;20217;-56
2023/10/31 01:43:33;;;;;;;1999.90;999.90;;;;;;;9.80;100.00;93137.72;5011288;28;20276;-57
2023/10/31 01:45:58;;;;;;;1999.90;999.90;;;;;;;9.72;100.00;93144.69;5010433;28;20462;-55
2023/10/31 01:48:27;;;;;;;1999.90;999.90;;;;;;;9.72;100.00;93147.41;5011013;28;20177;-53
2023/10/31 01:50:53;;;;;;;1999.90;999.90;;;;;;;9.71;100.00;93140.44;5010917;28;20172;-53
2023/10/31 01:53:18;;;;;;;1999.90;999.90;;;;;;;9.70;100.00;93160.72;5010453;28;20244;-53
2023/10/31 01:55:46;;;;;;;1999.90;999.90;;;;;;;9.67;100.00;93156.19;5010799;28;20165;-57
2023/10/31 01:58:12;;;;;;;1999.90;999.90;;;;;;;9.68;100.00;93148.75;5010057;28;20175;-55
2023/10/31 02:00:41;;;;;;;1999.90;999.90;;;;;;;9.67;100.00;93156.19;5009978;28;20165;-56
2023/10/31 02:03:07;;;;;;;1999.90;999.90;;;;;;;9.62;100.00;93154.03;5010799;28;20218;-57
2023/10/31 02:05:34;;;;;;;1999.90;999.90;;;;;;;9.62;100.00;93156.78;5010341;28;20172;-55
2023/10/31 02:08:00;;;;;;;1999.90;999.90;;;;;;;9.62;100.00;93164.19;5010074;28;20476;-56
2023/10/31 02:10:25;;;;;;;1999.90;999.90;;;;;;;9.56;100.00;93171.44;5010106;28;20163;-56
2023/10/31 02:12:50;;;;;;;1999.90;999.90;;;;;;;9.48;100.00;93170.97;5010582;28;20170;-55
2023/10/31 02:15:16;;;;;;;1999.90;999.90;;;;;;;9.47;100.00;93180.34;5010483;28;20164;-56
2023/10/31 02:17:41;;;;;;;1999.90;999.90;;;;;;;9.49;100.00;93188.06;5009873;28;20198;-53
2023/10/31 02:20:07;;;;;;;1999.90;999.90;;;;;;;9.51;100.00;93189.13;5009940;28;20182;-55
2023/10/31 02:22:32;;;;;;;1999.90;999.90;;;;;;;9.49;100.00;93199.75;5010146;28;20191;-55
2023/10/31 02:24:58;;;;;;;1999.90;999.90;;;;;;;9.52;100.00;93198.06;5010254;28;20159;-56
2023/10/31 02:27:23;;;;;;;1999.90;999.90;;;;;;;9.44;100.00;93208.47;5010053;28;20167;-55
2023/10/31 02:29:48;;;;;;;1999.90;999.90;;;;;;;9.46;100.00;93202.59;5010248;28;20166;-60
2023/10/31 02:32:14;;;;;;;1999.90;999.90;;;;;;;9.43;100.00;93206.22;5010443;28;20251;-56
2023/10/31 02:34:39;;;;;;;1999.90;999.90;;;;;;;9.40;100.00;93202.41;5009738;28;20165;-54
2023/10/31 02:37:05;;;;;;;1999.90;999.90;;;;;;;9.37;100.00;93203.31;5009499;28;20164;-54
2023/10/31 02:39:31;;;;;;;1999.90;999.90;;;;;;;9.33;100.00;93197.25;5009654;28;20376;-53
2023/10/31 02:41:57;;;;;;;1999.90;999.90;;;;;;;9.35;100.00;93204.97;5009617;28;20217;-53
2023/10/31 02:44:23;;;;;;;1999.90;999.90;;;;;;;9.33;100.00;93208.13;5009851;28;20199;-55
2023/10/31 02:46:48;;;;;;;1999.90;999.90;;;;;;;9.30;100.00;93214.50;5009470;28;20163;-57
2023/10/31 02:49:14;;;;;;;1999.90;999.90;;;;;;;9.27;100.00;93220.84;5009299;28;20245;-57
2023/10/31 02:51:39;;;;;;;1999.90;999.90;;;;;;;9.22;100.00;93217.94;5009246;28;20176;-57
2023/10/31 02:54:05;;;;;;;1999.90;999.90;;;;;;;9.20;100.00;93218.41;5009264;28;20172;-57
2023/10/31 02:56:30;;;;;;;1999.90;999.90;;;;;;;9.19;100.00;93225.06;5009202;28;20164;-56
2023/10/31 02:58:55;;;;;;;1999.90;999.90;;;;;;;9.19;100.00;93230.50;5008809;28;20167;-55
2023/10/31 03:01:21;;;;;;;1999.90;999.90;;;;;;;9.18;100.00;93228.97;5008829;28;20246;-57
2023/10/31 03:03:46;;;;;;;1999.90;999.90;;;;;;;9.19;100.00;93235.94;5008745;28;20239;-55
2023/10/31 03:06:11;;;;;;;1999.90;999.90;;;;;;;9.17;100.00;93237.56;5008949;28;20175;-54
2023/10/31 03:08:36;;;;;;;1999.90;999.90;;;;;;;9.17;100.00;93235.63;5009522;28;20238;-57
2023/10/31 03:11:02;;;;;;;1999.90;999.90;;;;;;;9.17;100.00;93249.22;5009430;28;20167;-56
2023/10/31 03:13:27;;;;;;;1999.90;999.90;;;;;;;9.13;100.00;93259.50;5008907;28;20193;-57
2023/10/31 03:15:53;;;;;;;1999.90;999.90;;;;;;;9.12;100.00;93270.84;5008884;28;20301;-56
2023/10/31 03:18:18;;;;;;;1999.90;999.90;;;;;;;9.19;100.00;93265.13;5008759;28;20163;-57
2023/10/31 03:20:45;;;;;;;1999.90;999.90;;;;;;;9.16;100.00;93257.84;5009242;28;20229;-57
2023/10/31 03:23:11;;;;;;;1999.90;999.90;;;;;;;9.17;100.00;93257.41;5009106;28;20279;-56
2023/10/31 03:25:37;;;;;;;1999.90;999.90;;;;;;;9.17;100.00;93248.47;5009043;28;20170;-57
2023/10/31 03:28:03;;;;;;;1999.90;999.90;;;;;;;9.18;100.00;93252.72;5009087;28;20206;-59
2023/10/31 03:30:28;;;;;;;1999.90;999.90;;;;;;;9.10;100.00;93241.31;5008491;28;20174;-56
2023/10/31 03:32:53;;;;;;;1999.90;999.90;;;;;;;9.13;100.00;93243.16;5008514;28;20194;-58
2023/10/31 03:35:19;;;;;;;1999.90;999.90;;;;;;;9.10;100.00;93246.78;5008955;28;20168;-56
2023/10/31 03:37:44;;;;;;;1999.90;999.90;;;;;;;9.10;100.00;93249.50;5008963;28;20164;-56
2023/10/31 03:40:10;;;;;;;1999.90;999.90;;;;;;;9.06;100.00;93240.72;5008131;28;20214;-55
2023/10/31 03:42:35;;;;;;;1999.90;999.90;;;;;;;9.07;100.00;93246.91;5009009;28;20199;-56
2023/10/31 03:45:00;;;;;;;1999.90;999.90;;;;;;;9.09;100.00;93244.50;5008257;28;20171;-55
2023/10/31 03:47:26;;;;;;;1999.90;999.90;;;;;;;9.05;100.00;93247.38;5008618;28;20203;-55
2023/10/31 03:49:51;;;;;;;1999.90;999.90;;;;;;;9.08;100.00;93257.38;5008415;28;20164;-58
2023/10/31 03:52:17;;;;;;;1999.90;999.90;;;;;;;9.11;100.00;93267.34;5008714;28;20250;-57
2023/10/31 03:54:42;;;;;;;1999.90;999.90;;;;;;;9.10;100.00;93271.28;5008589;28;20168;-55
2023/10/31 03:57:07;;;;;;;1999.90;999.90;;;;;;;9.03;100.00;93276.97;5008291;28;20171;-55
2023/10/31 03:59:33;;;;;;;1999.90;999.90;;;;;;;9.01;100.00;93284.84;5008204;28;20178;-55
2023/10/31 04:01:58;;;;;;;1999.90;999.90;;;;;;;9.04;100.00;93285.91;5008025;28;20250;-56
2023/10/31 04:04:23;;;;;;;1999.90;999.90;;;;;;;9.01;100.00;93284.06;5008372;28;20203;-56
2023/10/31 04:06:48;;;;;;;1999.90;999.90;;;;;;;9.01;100.00;93284.84;5007940;28;20172;-53
2023/10/31 04:09:14;;;;;;;1999.90;999.90;;;;;;;8.97;100.00;93283.44;5008082;28;20255;-56
2023/10/31 04:11:41;;;;;;;1999.90;999.90;;;;;;;8.97;100.00;93284.22;5007900;28;20172;-56
2023/10/31 04:14:06;;;;;;;1999.90;999.90;;;;;;;8.94;100.00;93290.53;5008533;28;20243;-56
2023/10/31 04:16:32;;;;;;;1999.90;999.90;;;;;;;8.93;100.00;93310.03;5008281;28;20172;-55
2023/10/31 04:18:57;;;;;;;1999.90;999.90;;;;;;;8.91;100.00;93313.19;5008478;28;20206;-56
2023/10/31 04:21:22;;;;;;;1999.90;999.90;;;;;;;8.90;100.00;93324.53;5007812;28;20172;-56
2023/10/31 04:23:48;;;;;;;1999.90;999.90;;;;;;;8.87;100.00;93328.13;5007656;28;20195;-53
2023/10/31 04:26:13;;;;;;;1999.90;999.90;;;;;;;8.89;100.00;93329.19;5007737;28;20171;-52
2023/10/31 04:28:39;;;;;;;1999.90;999.90;;;;;;;8.86;100.00;93332.81;5007780;28;20175;-52
2023/10/31 04:31:04;;;;;;;1999.90;999.90;;;;;;;8.91;100.00;93331.47;5007636;28;20167;-51
2023/10/31 04:33:30;;;;;;;1999.90;999.90;;;;;;;8.92;100.00;93322.88;5007581;28;20190;-55
2023/10/31 04:35:55;;;;;;;1999.90;999.90;;;;;;;8.92;100.00;93328.31;5007470;28;20163;-52
2023/10/31 04:38:20;;;;;;;1999.90;999.90;;;;;;;8.87;100.00;93328.91;5008122;28;20164;-56
2023/10/31 04:40:46;;;;;;;1999.90;999.90;;;;;;;8.87;100.00;93333.56;5006963;28;20207;-58
2023/10/31 04:43:11;;;;;;;1999.90;999.90;;;;;;;8.88;100.00;93330.41;5007529;28;20190;-57
2023/10/31 04:45:37;;;;;;;1999.90;999.90;;;;;;;8.86;100.00;93332.06;5007406;28;20213;-55
2023/10/31 04:48:02;;;;;;;1999.90;999.90;;;;;;;8.86;100.00;93338.25;5007172;28;20159;-57
2023/10/31 04:50:28;;;;;;;1999.90;999.90;;;;;;;8.88;100.00;93343.25;5007384;28;20239;-54
2023/10/31 04:52:53;;;;;;;1999.90;999.90;;;;;;;8.86;100.00;93338.25;5007427;28;20185;-56
2023/10/31 04:55:18;;;;;;;1999.90;999.90;;;;;;;8.86;100.00;93340.22;5007458;28;20191;-53
2023/10/31 04:57:44;;;;;;;1999.90;999.90;;;;;;;8.82;100.00;93328.72;5007413;28;20171;-57
2023/10/31 05:00:10;;;;;;;1999.90;999.90;;;;;;;8.84;100.00;93335.22;5009474;28;20171;-57
2023/10/31 05:02:35;;;;;;;1999.90;999.90;;;;;;;8.86;100.00;93334.78;5011847;28;20167;-54
2023/10/31 05:05:01;;;;;;;1999.90;999.90;;;;;;;8.89;100.00;93342.81;5011768;28;20168;-55
2023/10/31 05:07:26;;;;;;;1999.90;999.90;;;;;;;8.86;100.00;93343.69;5011270;28;20163;-56
2023/10/31 05:09:51;;;;;;;1999.90;999.90;;;;;;;8.82;100.00;93348.50;5011746;28;20167;-56
2023/10/31 05:12:17;;;;;;;1999.90;999.90;;;;;;;8.81;100.00;93363.31;5011259;28;20222;-55
2023/10/31 05:14:42;;;;;;;1999.90;999.90;;;;;;;8.83;100.00;93366.38;5011131;28;20167;-52
2023/10/31 05:17:07;;;;;;;1999.90;999.90;;;;;;;8.82;100.00;93372.25;5011014;28;20167;-54
2023/10/31 05:19:33;;;;;;;1999.90;999.90;;;;;;;8.83;100.00;93377.25;5010941;28;20203;-56
2023/10/31 05:21:58;;;;;;;1999.90;999.90;;;;;;;8.83;100.00;93382.69;5010989;28;20187;-55
2023/10/31 05:24:23;;;;;;;1999.90;999.90;;;;;;;8.82;100.00;93396.75;5011341;28;20194;-55
2023/10/31 05:26:49;;;;;;;1999.90;999.90;;;;;;;8.87;100.00;93394.22;5011299;28;20168;-55
2023/10/31 05:29:14;;;;;;;1999.90;999.90;;;;;;;8.82;100.00;93402.94;5010800;28;20480;-55
2023/10/31 05:31:41;;;;;;;1999.90;999.90;;;;;;;8.84;100.00;93403.25;5010818;28;20333;-54
2023/10/31 05:34:06;;;;;;;1999.90;999.90;;;;;;;8.84;100.00;93410.66;5011195;28;20164;-58
2023/10/31 05:36:32;;;;;;;1999.90;999.90;;;;;;;8.84;100.00;93400.53;5011415;28;20167;-57
2023/10/31 05:38:57;;;;;;;1999.90;999.90;;;;;;;8.84;100.00;93405.97;5010249;28;20187;-57
2023/10/31 05:41:23;;;;;;;1999.90;999.90;;;;;;;8.82;100.00;93402.94;5010336;28;20215;-56
2023/10/31 05:43:48;;;;;;;1999.90;999.90;;;;;;;8.84;100.00;93414.16;5010530;28;20310;-58
2023/10/31 05:46:14;;;;;;;1999.90;999.90;;;;;;;8.84;100.00;93422.31;5010455;28;20186;-55
2023/10/31 05:48:44;;;;;;;1999.90;999.90;;;;;;;8.83;100.00;93420.78;5010137;28;20187;-56
2023/10/31 05:51:17;;;;;;;1999.90;999.90;;;;;;;8.82;100.00;93413.81;5010871;28;20479;-56
2023/10/31 05:53:44;;;;;;;1999.90;999.90;;;;;;;8.83;100.00;93420.78;5010882;28;20164;-56
2023/10/31 05:56:12;;;;;;;1999.90;999.90;;;;;;;8.86;100.00;93422.63;5010919;28;20184;-55
2023/10/31 05:58:38;;;;;;;1999.90;999.90;;;;;;;8.83;100.00;93426.25;5010479;28;20202;-58
2023/10/31 06:01:04;;;;;;;1999.90;999.90;;;;;;;8.84;100.00;93427.75;5010086;28;20163;-57
2023/10/31 06:03:29;;;;;;;1999.90;999.90;;;;;;;8.87;100.00;93421.44;5009905;28;20207;-55
2023/10/31 06:05:55;;;;;;;1999.90;999.90;;;;;;;8.87;100.00;93416.00;5010411;28;20169;-56
2023/10/31 06:08:20;;;;;;;1999.90;999.90;;;;;;;8.87;100.00;93421.44;5010573;28;20198;-56
2023/10/31 06:10:45;;;;;;;1999.90;999.90;;;;;;;8.89;100.00;93424.47;5009537;28;20223;-54
2023/10/31 06:13:11;;;;;;;1999.90;999.90;;;;;;;8.90;100.00;93415.13;5009930;28;20167;-54
2023/10/31 06:15:36;;;;;;;1999.90;999.90;;;;;;;8.92;100.00;93423.59;5010498;28;20184;-55
2023/10/31 06:18:02;;;;;;;1999.90;999.90;;;;;;;8.93;100.00;93430.53;5009965;28;20171;-57
2023/10/31 06:20:28;;;;;;;1999.90;999.90;;;;;;;8.91;100.00;93435.69;5010592;28;20174;-57
2023/10/31 06:22:53;;;;;;;1999.90;999.90;;;;;;;8.96;100.00;93450.69;5009711;28;20191;-56
2023/10/31 06:25:18;;;;;;;1999.90;999.90;;;;;;;8.95;100.00;93449.94;5009770;28;20229;-56
2023/10/31 06:27:44;;;;;;;1999.90;999.90;;;;;;;8.98;100.00;93459.16;5010278;28;20368;-57
2023/10/31 06:30:10;;;;;;;1999.90;999.90;;;;;;;8.98;100.00;93457.22;5009993;28;20160;-56
2023/10/31 06:32:36;;;;;;;1999.90;999.90;;;;;;;9.02;100.00;93446.97;4993789;28;20251;-56
2023/10/31 06:35:02;;;;;;;1999.90;999.90;;;;;;;8.97;100.00;93444.81;5009968;28;20239;-54
2023/10/31 06:37:27;;;;;;;1999.90;999.90;;;;;;;9.03;100.00;93440.31;5009503;28;20259;-58
2023/10/31 06:39:52;;;;;;;1999.90;999.90;;;;;;;8.98;100.00;93451.00;5009418;28;20194;-56
2023/10/31 06:42:18;;;;;;;1999.90;999.90;;;;;;;9.00;100.00;93457.53;5009763;28;20226;-56
2023/10/31 06:44:43;;;;;;;1999.90;999.90;;;;;;;8.99;100.00;93450.56;5009381;28;20195;-56
2023/10/31 06:47:08;;;;;;;1999.90;999.90;;;;;;;9.06;100.00;93450.31;5009806;28;20168;-57
2023/10/31 06:49:34;;;;;;;1999.90;999.90;;;;;;;9.01;100.00;93459.06;5009275;28;20170;-56
2023/10/31 06:51:59;;;;;;;1999.90;999.90;;;;;;;9.06;100.00;93471.34;5009406;28;20360;-56
2023/10/31 06:54:24;;;;;;;1999.90;999.90;;;;;;;9.01;100.00;93480.84;5009540;28;20171;-56
2023/10/31 06:56:49;;;;;;;1999.90;999.90;;;;;;;8.99;100.00;93483.22;5009098;28;20168;-57
2023/10/31 06:59:15;;;;;;;1999.90;999.90;;;;;;;9.05;100.00;93497.81;5008959;28;20175;-56
2023/10/31 07:01:40;;;;;;;1999.90;999.90;;;;;;;9.03;100.00;93494.75;5009363;28;20164;-57
2023/10/31 07:04:06;;;;;;;1999.90;999.90;;;;;;;9.06;100.00;93499.34;5008959;28;20199;-54
2023/10/31 07:06:31;;;;;;;1999.90;999.90;;;;;;;9.02;100.00;93498.69;5008920;28;20191;-55
2023/10/31 07:08:57;;;;;;;1999.90;999.90;;;;;;;9.04;100.00;93506.44;5009377;28;20240;-57
2023/10/31 07:11:22;;;;;;;1999.90;999.90;;;;;;;9.03;100.00;93513.81;5008439;28;20202;-56
2023/10/31 07:13:48;;;;;;;1999.90;999.90;;;;;;;9.08;100.00;93507.84;5009232;28;20159;-58
2023/10/31 07:16:13;;;;;;;1999.90;999.90;;;;;;;9.05;100.00;93514.16;5009189;28;20167;-56
2023/10/31 07:18:38;;;;;;;1999.90;999.90;;;;;;;9.05;100.00;93508.72;5008646;28;20195;-56
2023/10/31 07:21:04;;;;;;;1999.90;999.90;;;;;;;9.11;100.00;93506.19;5008414;28;20165;-56
2023/10/31 07:23:29;;;;;;;1999.90;999.90;;;;;;;9.10;100.00;93510.88;5008387;28;20266;-54
2023/10/31 07:25:55;;;;;;;1999.90;999.90;;;;;;;9.13;100.00;93504.53;5008236;28;20168;-59
2023/10/31 07:28:20;;;;;;;1999.90;999.90;;;;;;;9.11;100.00;93490.59;5008411;28;20167;-56
2023/10/31 07:30:45;;;;;;;1999.90;999.90;;;;;;;9.09;100.00;93506.63;5008985;28;20167;-57
2023/10/31 07:33:11;;;;;;;1999.90;999.90;;;;;;;9.15;100.00;93501.38;5008290;28;20255;-56
2023/10/31 07:35:37;;;;;;;1999.90;999.90;;;;;;;9.17;100.00;93510.63;5008340;28;20159;-57
2023/10/31 07:38:02;;;;;;;1999.90;999.90;;;;;;;9.19;100.00;93513.69;5008135;28;20164;-56
2023/10/31 07:40:27;;;;;;;1999.90;999.90;;;;;;;9.23;100.00;93522.50;5007954;28;20392;-54
2023/10/31 07:42:53;;;;;;;1999.90;999.90;;;;;;;9.30;100.00;93524.22;5008168;28;20191;-57
2023/10/31 07:45:18;;;;;;;1999.90;999.90;;;;;;;9.32;100.00;93538.91;5008280;28;20174;-57
2023/10/31 07:47:43;;;;;;;1999.90;999.90;;;;;;;9.33;100.00;93547.84;5008180;28;20243;-56
2023/10/31 07:50:09;;;;;;;1999.90;999.90;;;;;;;9.33;100.00;93558.75;5007842;28;20174;-56
2023/10/31 07:52:35;;;;;;;1999.90;999.90;;;;;;;9.33;100.00;93556.78;5008110;28;20174;-57
2023/10/31 07:55:00;;;;;;;1999.90;999.90;;;;;;;9.31;100.00;93553.75;5008068;28;20164;-57
2023/10/31 07:57:25;;;;;;;1999.90;999.90;;;;;;;9.28;100.00;93564.72;5008548;28;20171;-56
2023/10/31 07:59:51;;;;;;;1999.90;999.90;;;;;;;9.36;100.00;93566.78;5008174;28;20167;-56
2023/10/31 08:02:16;;;;;;;1999.90;999.90;;;;;;;9.37;100.00;93546.50;5007888;28;20176;-58
2023/10/31 08:04:41;;;;;;;1999.90;999.90;;;;;;;9.38;100.00;93552.72;5007896;28;20200;-56
2023/10/31 08:07:07;;;;;;;1999.90;999.90;;;;;;;9.48;100.00;93557.81;5007893;28;20238;-58
2023/10/31 08:09:32;;;;;;;1999.90;999.90;;;;;;;9.52;100.00;93566.66;5008406;28;20168;-57
2023/10/31 08:11:58;;;;;;;1999.90;999.90;;;;;;;9.60;100.00;93576.09;5007535;28;20170;-58
2023/10/31 08:14:23;;;;;;;1999.90;999.90;;;;;;;9.61;100.00;93590.47;5007878;28;20199;-58
2023/10/31 08:16:48;;;;;;;1999.90;999.90;;;;;;;9.62;100.00;93594.75;5007754;28;20173;-58
2023/10/31 08:19:14;;;;;;;1999.90;999.90;;;;;;;9.65;100.00;93604.72;5007736;28;20173;-57
2023/10/31 08:21:40;;;;;;;1999.90;999.90;;;;;;;9.59;100.00;93623.59;5007832;28;20180;-57
2023/10/31 08:24:05;;;;;;;1999.90;999.90;;;;;;;9.58;100.00;93634.97;5007562;28;20502;-55
2023/10/31 08:26:32;;;;;;;1999.90;999.90;;;;;;;9.51;100.00;93637.94;5007606;28;20171;-53
2023/10/31 08:28:57;;;;;;;1999.90;999.90;;;;;;;9.61;100.00;93618.50;5007445;28;20159;-54
2023/10/31 08:31:23;;;;;;;1999.90;999.90;;;;;;;9.69;100.00;93621.75;5008101;28;20186;-56
2023/10/31 08:33:48;;;;;;;1999.90;999.90;;;;;;;9.60;100.00;93630.59;5007721;28;20159;-57
2023/10/31 08:36:14;;;;;;;1999.90;999.90;;;;;;;9.58;100.00;93627.53;5007467;28;20164;-58
2023/10/31 08:38:39;;;;;;;1999.90;999.90;;;;;;;9.51;100.00;93633.22;5008089;28;20375;-56
2023/10/31 08:41:05;;;;;;;1999.90;999.90;;;;;;;9.49;100.00;93613.84;5007357;28;20218;-57
2023/10/31 08:43:30;;;;;;;1999.90;999.90;;;;;;;9.58;100.00;93638.44;5007431;28;20198;-55
2023/10/31 08:45:55;;;;;;;1999.90;999.90;;;;;;;9.49;100.00;93640.31;5007975;28;20197;-55
2023/10/31 08:48:21;;;;;;;1999.90;999.90;;;;;;;9.52;100.00;93637.50;5007343;28;20234;-55
2023/10/31 08:50:46;;;;;;;1999.90;999.90;;;;;;;9.43;100.00;93614.81;5007868;28;20173;-56
2023/10/31 08:53:12;;;;;;;1999.90;999.90;;;;;;;9.57;100.00;93582.44;5007892;28;20168;-57
2023/10/31 08:55:37;;;;;;;1999.90;999.90;;;;;;;9.60;100.00;93548.84;5007820;28;20176;-56
2023/10/31 08:58:03;;;;;;;1999.90;999.90;;;;;;;9.52;100.00;93514.88;5007812;28;20173;-55
2023/10/31 09:00:28;;;;;;;1999.90;999.90;;;;;;;9.68;100.00;93483.94;5007960;28;20169;-55
2023/10/31 09:02:54;;;;;;;1999.90;999.90;;;;;;;9.62;100.00;93453.03;5007937;28;20193;-57
2023/10/31 09:05:20;;;;;;;1999.90;999.90;;;;;;;9.62;100.00;93426.53;5007265;28;20251;-57
2023/10/31 09:07:46;;;;;;;1999.90;999.90;;;;;;;9.72;100.00;93395.41;5007148;28;20169;-55
2023/10/31 09:10:12;;;;;;;1999.90;999.90;;;;;;;9.77;100.00;93405.72;5007673;28;20200;-57
2023/10/31 09:12:37;;;;;;;1999.90;999.90;;;;;;;9.69;100.00;93388.13;5007201;28;20173;-57
2023/10/31 09:15:03;;;;;;;1999.90;999.90;;;;;;;9.72;100.00;93368.16;5007155;28;20198;-57
2023/10/31 09:17:29;;;;;;;1999.90;999.90;;;;;;;9.70;100.00;93356.94;5007203;28;20196;-56
2023/10/31 09:19:55;;;;;;;1999.90;999.90;;;;;;;9.68;100.00;93353.13;5007737;28;20173;-55
2023/10/31 09:22:20;;;;;;;1999.90;999.90;;;;;;;9.66;100.00;93339.97;5007300;28;20263;-55
2023/10/31 09:24:45;;;;;;;1999.90;999.90;;;;;;;9.68;100.00;93321.19;5007010;28;20209;-57
2023/10/31 09:27:11;;;;;;;1999.90;999.90;;;;;;;9.74;100.00;93318.66;5007084;28;20195;-55
2023/10/31 09:29:36;;;;;;;1999.90;999.90;;;;;;;9.76;100.00;93322.44;5007116;28;20169;-57
2023/10/31 09:32:03;;;;;;;1999.90;999.90;;;;;;;9.67;100.00;93327.88;5006932;28;20194;-55
2023/10/31 09:34:28;;;;;;;1999.90;999.90;;;;;;;9.71;100.00;93320.31;5006718;28;20177;-56
2023/10/31 09:36:54;;;;;;;1999.90;999.90;;;;;;;9.77;100.00;93340.31;5007050;28;20174;-55
2023/10/31 09:39:19;;;;;;;1999.90;999.90;;;;;;;9.70;100.00;93348.75;5007476;28;20193;-56
2023/10/31 09:41:45;;;;;;;1999.90;999.90;;;;;;;9.76;100.00;93346.97;5006883;28;20224;-57
2023/10/31 09:44:10;;;;;;;1999.90;999.90;;;;;;;9.83;100.00;93349.44;5007379;28;20198;-54
2023/10/31 09:46:36;;;;;;;1999.90;999.90;;;;;;;9.83;100.00;93348.66;5009784;28;20180;-57
2023/10/31 09:49:02;;;;;;;1999.90;999.90;;;;;;;9.94;100.00;93332.66;5010590;28;20165;-57
2023/10/31 09:51:28;;;;;;;1999.90;999.90;;;;;;;10.02;100.00;93342.84;5010833;28;20193;-53
2023/10/31 09:53:55;;;;;;;1999.90;999.90;;;;;;;9.97;100.00;93331.75;5010805;28;20354;-56
2023/10/31 09:56:22;;;;;;;1999.90;999.90;;;;;;;9.97;100.00;93343.44;5010769;28;20184;-57
2023/10/31 09:58:47;;;;;;;1999.90;999.90;;;;;;;10.05;100.00;93355.59;5011115;28;20457;-57
2023/10/31 10:01:14;;;;;;;1999.90;999.90;;;;;;;10.09;100.00;93367.13;5010645;28;20258;-56
2023/10/31 10:03:40;;;;;;;1999.90;999.90;;;;;;;10.05;100.00;93388.31;5010108;28;20205;-56
2023/10/31 10:06:06;;;;;;;1999.90;999.90;;;;;;;10.12;100.00;93402.91;5010117;28;20174;-57
2023/10/31 10:08:31;;;;;;;1999.90;999.90;;;;;;;10.16;100.00;93425.34;5010283;28;20356;-55
2023/10/31 10:10:57;;;;;;;1999.90;999.90;;;;;;;10.19;100.00;93440.81;5009611;28;20194;-56
2023/10/31 10:13:23;;;;;;;1999.90;999.90;;;;;;;10.13;100.00;93470.63;5010373;28;20209;-56
2023/10/31 10:15:54;;;;;;;1999.90;999.90;;;;;;;10.19;100.00;93479.00;5009974;28;20249;-56
2023/10/31 10:18:30;;;;;;;1999.90;999.90;;;;;;;10.22;100.00;93489.75;5009494;28;20191;-55
2023/10/31 10:21:00;;;;;;;1999.90;999.90;;;;;;;10.23;100.00;93493.25;5009777;28;20276;-55
2023/10/31 10:23:26;;;;;;;1999.90;999.90;;;;;;;10.33;100.00;93489.34;5010085;28;20200;-57
2023/10/31 10:25:53;;;;;;;1999.90;999.90;;;;;;;10.37;100.00;93490.75;5010158;28;20242;-56
2023/10/31 10:28:21;;;;;;;1999.90;999.90;;;;;;;10.37;100.00;93503.63;5009593;28;20166;-56
2023/10/31 10:30:48;;;;;;;1999.90;999.90;;;;;;;10.37;100.00;93506.38;5009687;28;20166;-56
2023/10/31 10:33:14;;;;;;;1999.90;999.90;;;;;;;10.43;100.00;93504.56;5010026;28;20169;-56
2023/10/31 10:35:39;;;;;;;1999.90;999.90;;;;;;;10.45;100.00;93502.16;5010073;28;20265;-54
2023/10/31 10:38:11;;;;;;;1999.90;999.90;;;;;;;10.51;100.00;93511.25;5009805;28;20175;-56
2023/10/31 10:40:37;;;;;;;1999.90;999.90;;;;;;;10.51;100.00;93517.50;5009492;28;20233;-56
2023/10/31 10:43:08;;;;;;;1999.90;999.90;;;;;;;10.56;100.00;93518.88;5009746;28;20269;-56
2023/10/31 10:45:38;;;;;;;1999.90;999.90;;;;;;;10.57;100.00;93520.41;5009854;28;20166;-57